createdAt,value
2024-03-04T00:00:50.848Z,6.96
2024-03-04T00:02:23.353Z,6.95
2024-03-04T00:03:54.844Z,6.97
2024-03-04T00:05:26.368Z,6.99
2024-03-04T00:06:59.372Z,6.98
2024-03-04T00:08:30.770Z,6.99
2024-03-04T00:10:08.293Z,6.97
2024-03-04T00:11:39.804Z,6.98
2024-03-04T00:13:11.596Z,6.98
2024-03-04T00:14:43.646Z,6.99
2024-03-04T00:16:15.107Z,6.99
2024-03-04T00:17:46.633Z,6.95
2024-03-04T00:19:19.686Z,6.98
2024-03-04T00:20:51.157Z,6.98
2024-03-04T00:22:22.636Z,6.98
2024-03-04T00:23:54.727Z,7.01
2024-03-04T00:25:26.154Z,7.01
2024-03-04T00:26:57.893Z,7.01
2024-03-04T00:28:29.325Z,7.00
2024-03-04T00:30:00.861Z,6.98
2024-03-04T00:31:32.354Z,6.97
2024-03-04T00:33:04.758Z,6.98
2024-03-04T00:34:36.246Z,6.99
2024-03-04T00:36:08.145Z,7.01
2024-03-04T00:37:39.579Z,7.06
2024-03-04T00:39:11.000Z,7.07
2024-03-04T00:40:42.409Z,7.03
2024-03-04T00:42:13.956Z,7.04
2024-03-04T00:43:45.339Z,7.02
2024-03-04T00:45:16.894Z,7.03
2024-03-04T00:46:48.342Z,7.01
2024-03-04T00:48:19.887Z,6.98
2024-03-04T00:49:51.809Z,6.97
2024-03-04T00:51:23.709Z,7.00
2024-03-04T00:52:56.608Z,7.01
2024-03-04T00:54:28.131Z,6.99
2024-03-04T00:55:59.636Z,6.99
2024-03-04T00:57:31.215Z,7.00
2024-03-04T00:59:03.463Z,7.01
2024-03-04T01:02:13.008Z,6.98
2024-03-04T01:03:44.401Z,6.97
2024-03-04T01:05:15.854Z,6.95
2024-03-04T01:06:53.397Z,6.96
2024-03-04T01:08:25.872Z,6.97
2024-03-04T01:09:57.908Z,6.97
2024-03-04T01:11:29.401Z,7.00
2024-03-04T01:13:01.192Z,7.04
2024-03-04T01:14:32.747Z,7.02
2024-03-04T01:16:05.675Z,7.01
2024-03-04T01:17:37.449Z,7.04
2024-03-04T01:19:10.116Z,7.03
2024-03-04T01:20:42.223Z,7.04
2024-03-04T01:22:17.436Z,7.05
2024-03-04T01:23:51.912Z,7.04
2024-03-04T01:25:24.649Z,7.03
2024-03-04T01:26:57.801Z,7.03
2024-03-04T01:28:29.881Z,7.04
2024-03-04T01:30:01.674Z,7.04
2024-03-04T01:31:33.336Z,7.04
2024-03-04T01:33:08.363Z,7.04
2024-03-04T01:34:40.676Z,7.06
2024-03-04T01:36:12.833Z,7.04
2024-03-04T01:37:45.010Z,7.05
2024-03-04T01:39:16.667Z,7.07
2024-03-04T01:40:48.285Z,7.07
2024-03-04T01:42:19.705Z,7.08
2024-03-04T01:43:53.818Z,7.07
2024-03-04T01:45:28.705Z,7.03
2024-03-04T01:47:18.747Z,7.06
2024-03-04T01:48:50.162Z,7.06
2024-03-04T01:50:24.606Z,7.05
2024-03-04T01:51:57.006Z,7.09
2024-03-04T01:53:29.300Z,7.08
2024-03-04T01:55:00.754Z,7.09
2024-03-04T01:56:32.564Z,7.09
2024-03-04T01:58:05.821Z,7.12
2024-03-04T01:59:39.685Z,7.09
2024-03-04T02:01:12.562Z,7.08
2024-03-04T02:02:44.851Z,7.08
2024-03-04T02:04:16.735Z,7.09
2024-03-04T02:05:49.349Z,7.06
2024-03-04T02:07:21.023Z,7.09
2024-03-04T02:08:52.720Z,7.12
2024-03-04T02:10:24.291Z,7.14
2024-03-04T02:11:56.135Z,7.14
2024-03-04T02:13:28.874Z,7.12
2024-03-04T02:15:01.091Z,7.13
2024-03-04T02:16:33.006Z,7.15
2024-03-04T02:18:08.630Z,7.12
2024-03-04T02:19:40.224Z,7.10
2024-03-04T02:21:14.548Z,7.10
2024-03-04T02:22:46.857Z,7.10
2024-03-04T02:24:18.304Z,7.09
2024-03-04T02:25:54.032Z,7.11
2024-03-04T02:27:27.338Z,7.11
2024-03-04T02:29:01.172Z,7.09
2024-03-04T02:30:34.668Z,7.08
2024-03-04T02:32:07.036Z,7.07
2024-03-04T02:33:43.309Z,7.09
2024-03-04T02:35:14.749Z,7.06
2024-03-04T02:36:47.036Z,7.06
2024-03-04T02:38:19.880Z,7.03
2024-03-04T02:39:56.320Z,7.02
2024-03-04T02:41:27.843Z,7.01
2024-03-04T02:42:59.609Z,7.04
2024-03-04T02:44:31.954Z,7.02
2024-03-04T02:46:03.495Z,7.06
2024-03-04T02:47:34.929Z,7.05
2024-03-04T02:49:06.577Z,7.02
2024-03-04T02:50:39.306Z,7.02
2024-03-04T02:52:10.807Z,7.04
2024-03-04T02:53:42.347Z,7.06
2024-03-04T02:55:13.787Z,7.04
2024-03-04T02:56:45.342Z,7.08
2024-03-04T02:58:17.702Z,7.10
2024-03-04T02:59:49.245Z,7.10
2024-03-04T03:01:21.074Z,7.08
2024-03-04T03:02:52.659Z,7.06
2024-03-04T03:04:26.520Z,7.08
2024-03-04T03:05:58.072Z,7.03
2024-03-04T03:07:29.646Z,7.00
2024-03-04T03:09:01.272Z,7.04
2024-03-04T03:10:33.166Z,7.06
2024-03-04T03:12:04.914Z,7.02
2024-03-04T03:13:36.501Z,7.01
2024-03-04T03:15:08.168Z,6.96
2024-03-04T03:16:39.628Z,6.94
2024-03-04T03:18:14.831Z,6.91
2024-03-04T03:19:46.340Z,6.84
2024-03-04T03:21:18.601Z,6.81
2024-03-04T03:22:50.296Z,6.82
2024-03-04T03:24:22.393Z,6.82
2024-03-04T03:25:53.878Z,6.80
2024-03-04T03:27:25.373Z,6.77
2024-03-04T03:28:57.777Z,6.77
2024-03-04T03:30:29.298Z,6.77
2024-03-04T03:32:00.713Z,6.79
2024-03-04T03:33:33.001Z,6.79
2024-03-04T03:35:05.399Z,6.78
2024-03-04T03:36:43.915Z,6.78
2024-03-04T03:38:15.413Z,6.79
2024-03-04T03:39:46.934Z,6.77
2024-03-04T03:41:18.507Z,6.76
2024-03-04T03:42:49.936Z,6.75
2024-03-04T03:44:21.311Z,6.76
2024-03-04T03:45:52.945Z,6.76
2024-03-04T03:47:24.387Z,6.73
2024-03-04T03:48:56.408Z,6.78
2024-03-04T03:50:27.874Z,6.76
2024-03-04T03:51:59.345Z,6.77
2024-03-04T03:53:34.759Z,6.77
2024-03-04T03:55:06.479Z,6.77
2024-03-04T03:56:41.264Z,6.77
2024-03-04T03:58:12.726Z,6.78
2024-03-04T03:59:44.880Z,6.79
2024-03-04T04:01:16.498Z,6.78
2024-03-04T04:02:48.007Z,6.78
2024-03-04T04:04:19.605Z,6.76
2024-03-04T04:05:51.050Z,6.76
2024-03-04T04:07:22.704Z,6.71
2024-03-04T04:08:54.408Z,6.69
2024-03-04T04:10:26.072Z,6.71
2024-03-04T04:11:57.591Z,6.71
2024-03-04T04:13:30.027Z,6.64
2024-03-04T04:15:01.909Z,6.66
2024-03-04T04:16:34.602Z,6.67
2024-03-04T04:18:06.114Z,6.65
2024-03-04T04:19:37.613Z,6.62
2024-03-04T04:21:09.914Z,6.62
2024-03-04T04:22:41.856Z,6.61
2024-03-04T04:24:13.303Z,6.59
2024-03-04T04:25:44.764Z,6.55
2024-03-04T04:27:16.217Z,6.53
2024-03-04T04:28:47.600Z,6.54
2024-03-04T04:30:19.243Z,6.54
2024-03-04T04:31:50.630Z,6.54
2024-03-04T04:33:23.890Z,6.51
2024-03-04T04:34:55.272Z,6.50
2024-03-04T04:36:27.167Z,6.47
2024-03-04T04:37:58.564Z,6.46
2024-03-04T04:39:29.938Z,6.42
2024-03-04T04:41:01.332Z,6.37
2024-03-04T04:42:32.905Z,6.38
2024-03-04T04:44:04.498Z,6.38
2024-03-04T04:45:35.955Z,6.38
2024-03-04T04:47:07.396Z,6.37
2024-03-04T04:48:39.051Z,6.36
2024-03-04T04:50:11.720Z,6.36
2024-03-04T04:51:43.496Z,6.33
2024-03-04T04:53:15.090Z,6.31
2024-03-04T04:54:46.807Z,6.33
2024-03-04T04:56:18.793Z,6.28
2024-03-04T04:57:50.277Z,6.29
2024-03-04T04:59:21.966Z,6.27
2024-03-04T05:00:54.241Z,6.28
2024-03-04T05:02:25.727Z,6.27
2024-03-04T05:04:14.300Z,6.25
2024-03-04T05:05:50.351Z,6.22
2024-03-04T05:07:21.887Z,6.24
2024-03-04T05:08:53.764Z,6.25
2024-03-04T05:10:25.227Z,6.27
2024-03-04T05:11:56.781Z,6.30
2024-03-04T05:13:28.236Z,6.32
2024-03-04T05:15:00.154Z,6.33
2024-03-04T05:16:31.742Z,6.31
2024-03-04T05:18:03.354Z,6.31
2024-03-04T05:19:38.950Z,6.31
2024-03-04T05:21:10.451Z,6.30
2024-03-04T05:22:41.938Z,6.31
2024-03-04T05:24:13.466Z,6.32
2024-03-04T05:25:45.007Z,6.35
2024-03-04T05:27:16.690Z,6.36
2024-03-04T05:28:48.099Z,6.37
2024-03-04T05:30:20.253Z,6.37
2024-03-04T05:31:58.112Z,6.36
2024-03-04T05:33:29.515Z,6.34
2024-03-04T05:35:00.965Z,6.36
2024-03-04T05:36:32.469Z,6.39
2024-03-04T05:38:04.132Z,6.39
2024-03-04T05:39:35.693Z,6.38
2024-03-04T05:41:07.085Z,6.39
2024-03-04T05:42:40.755Z,6.42
2024-03-04T05:44:12.489Z,6.41
2024-03-04T05:45:43.993Z,6.40
2024-03-04T05:47:15.876Z,6.38
2024-03-04T05:48:47.661Z,6.41
2024-03-04T05:50:19.212Z,6.39
2024-03-04T05:51:51.534Z,6.37
2024-03-04T05:53:23.268Z,6.36
2024-03-04T05:54:54.824Z,6.36
2024-03-04T05:56:26.220Z,6.41
2024-03-04T05:57:57.677Z,6.44
2024-03-04T05:59:29.217Z,6.44
2024-03-04T06:01:01.711Z,6.43
2024-03-04T06:02:33.281Z,6.40
2024-03-04T06:04:05.655Z,6.38
2024-03-04T06:05:37.076Z,6.41
2024-03-04T06:07:08.532Z,6.41
2024-03-04T06:08:39.939Z,6.42
2024-03-04T06:10:11.657Z,6.43
2024-03-04T06:13:15.731Z,6.49
2024-03-04T06:14:47.226Z,6.51
2024-03-04T06:16:18.706Z,6.54
2024-03-04T06:17:50.471Z,6.58
2024-03-04T06:19:22.043Z,6.58
2024-03-04T06:20:53.438Z,6.61
2024-03-04T06:22:27.665Z,6.65
2024-03-04T06:24:00.903Z,6.61
2024-03-04T06:25:32.333Z,6.66
2024-03-04T06:27:04.088Z,6.70
2024-03-04T06:28:36.330Z,6.77
2024-03-04T06:30:12.209Z,6.80
2024-03-04T06:31:43.802Z,6.79
2024-03-04T06:33:15.439Z,6.84
2024-03-04T06:34:47.178Z,6.84
2024-03-04T06:36:19.035Z,6.83
2024-03-04T06:37:51.945Z,6.83
2024-03-04T06:39:23.399Z,6.86
2024-03-04T06:40:54.982Z,6.89
2024-03-04T06:42:26.715Z,6.92
2024-03-04T06:43:58.108Z,6.89
2024-03-04T06:45:29.560Z,6.89
2024-03-04T06:47:01.068Z,6.89
2024-03-04T06:48:32.513Z,6.93
2024-03-04T06:50:05.574Z,6.97
2024-03-04T06:51:37.216Z,6.96
2024-03-04T06:53:10.285Z,6.95
2024-03-04T06:54:41.692Z,6.98
2024-03-04T06:56:13.824Z,7.01
2024-03-04T06:57:45.409Z,7.05
2024-03-04T06:59:16.840Z,7.07
2024-03-04T07:02:24.611Z,7.11
2024-03-04T07:03:56.729Z,7.10
2024-03-04T07:05:28.163Z,7.16
2024-03-04T07:07:00.032Z,7.25
2024-03-04T07:08:33.565Z,7.34
2024-03-04T07:10:05.658Z,7.42
2024-03-04T07:11:37.201Z,7.48
2024-03-04T07:13:09.107Z,7.53
2024-03-04T07:14:40.642Z,7.61
2024-03-04T07:16:19.015Z,7.70
2024-03-04T07:17:50.580Z,7.75
2024-03-04T07:19:22.074Z,7.87
2024-03-04T07:20:53.475Z,7.94
2024-03-04T07:22:24.958Z,8.03
2024-03-04T07:23:56.511Z,8.02
2024-03-04T07:25:27.974Z,7.98
2024-03-04T07:26:59.392Z,7.96
2024-03-04T07:28:31.113Z,7.97
2024-03-04T07:30:03.707Z,8.02
2024-03-04T07:31:37.069Z,8.01
2024-03-04T07:33:10.782Z,7.98
2024-03-04T07:34:42.400Z,7.96
2024-03-04T07:36:17.113Z,7.95
2024-03-04T07:37:49.100Z,7.92
2024-03-04T07:39:20.605Z,7.92
2024-03-04T07:40:52.296Z,7.92
2024-03-04T07:42:25.082Z,7.83
2024-03-04T07:43:57.119Z,7.85
2024-03-04T07:45:28.540Z,7.87
2024-03-04T07:46:59.945Z,7.86
2024-03-04T07:48:31.332Z,7.86
2024-03-04T07:50:02.791Z,7.90
2024-03-04T07:51:34.231Z,7.88
2024-03-04T07:53:05.679Z,7.90
2024-03-04T07:54:37.084Z,7.89
2024-03-04T07:56:10.123Z,7.90
2024-03-04T07:57:43.947Z,7.89
2024-03-04T07:59:15.455Z,7.86
2024-03-04T08:00:46.921Z,7.88
2024-03-04T08:02:18.324Z,7.94
2024-03-04T08:03:49.739Z,7.96
2024-03-04T08:05:21.369Z,8.01
2024-03-04T08:06:52.851Z,8.02
2024-03-04T08:08:24.436Z,8.07
2024-03-04T08:09:55.966Z,8.12
2024-03-04T08:11:27.524Z,8.18
2024-03-04T08:12:59.077Z,8.24
2024-03-04T08:14:30.630Z,8.27
2024-03-04T08:16:02.399Z,8.33
2024-03-04T08:17:34.427Z,8.32
2024-03-04T08:19:07.057Z,8.36
2024-03-04T08:20:38.560Z,8.39
2024-03-04T08:22:10.002Z,8.42
2024-03-04T08:23:41.935Z,8.46
2024-03-04T08:25:13.436Z,8.49
2024-03-04T08:26:45.019Z,8.55
2024-03-04T08:28:23.575Z,8.57
2024-03-04T08:30:00.166Z,8.61
2024-03-04T08:31:32.645Z,8.66
2024-03-04T08:33:05.614Z,8.71
2024-03-04T08:34:37.273Z,8.70
2024-03-04T08:36:09.288Z,8.71
2024-03-04T08:37:41.351Z,8.77
2024-03-04T08:39:12.930Z,8.76
2024-03-04T08:40:44.655Z,8.80
2024-03-04T08:42:16.284Z,8.80
2024-03-04T08:43:48.904Z,8.86
2024-03-04T08:45:20.488Z,8.94
2024-03-04T08:46:51.977Z,9.02
2024-03-04T08:48:24.018Z,9.10
2024-03-04T08:49:57.664Z,9.14
2024-03-04T08:51:29.654Z,9.28
2024-03-04T08:53:01.089Z,9.40
2024-03-04T08:54:32.989Z,9.48
2024-03-04T08:56:07.763Z,9.62
2024-03-04T08:57:39.263Z,9.73
2024-03-04T08:59:10.972Z,9.76
2024-03-04T09:00:42.536Z,9.90
2024-03-04T09:02:14.068Z,10.05
2024-03-04T09:03:45.496Z,10.14
2024-03-04T09:05:17.065Z,10.24
2024-03-04T09:06:50.364Z,10.37
2024-03-04T09:08:21.791Z,10.41
2024-03-04T09:09:54.480Z,10.56
2024-03-04T09:11:26.487Z,10.61
2024-03-04T09:12:58.055Z,10.70
2024-03-04T09:14:30.831Z,10.85
2024-03-04T09:16:03.739Z,10.96
2024-03-04T09:17:35.236Z,11.07
2024-03-04T09:19:06.682Z,11.09
2024-03-04T09:20:38.111Z,11.20
2024-03-04T09:22:09.657Z,11.31
2024-03-04T09:23:41.110Z,11.35
2024-03-04T09:25:12.627Z,11.44
2024-03-04T09:26:47.635Z,11.52
2024-03-04T09:28:20.007Z,11.52
2024-03-04T09:29:51.501Z,11.39
2024-03-04T09:31:22.967Z,11.33
2024-03-04T09:32:54.431Z,11.32
2024-03-04T09:34:25.908Z,11.35
2024-03-04T09:35:57.428Z,11.34
2024-03-04T09:37:28.865Z,11.27
2024-03-04T09:39:00.302Z,11.33
2024-03-04T09:40:32.321Z,11.34
2024-03-04T09:42:03.887Z,11.40
2024-03-04T09:43:39.010Z,11.55
2024-03-04T09:45:11.282Z,11.65
2024-03-04T09:46:44.394Z,11.67
2024-03-04T09:48:17.527Z,11.78
2024-03-04T09:49:52.236Z,11.89
2024-03-04T09:51:25.578Z,12.02
2024-03-04T09:52:59.413Z,12.10
2024-03-04T09:54:32.461Z,12.07
2024-03-04T09:56:05.133Z,12.11
2024-03-04T09:57:37.352Z,12.26
2024-03-04T09:59:08.833Z,12.30
2024-03-04T10:00:43.604Z,12.47
2024-03-04T10:02:17.018Z,12.68
2024-03-04T10:03:49.150Z,12.84
2024-03-04T10:05:21.608Z,13.01
2024-03-04T10:06:53.447Z,13.13
2024-03-04T10:08:25.627Z,13.26
2024-03-04T10:09:58.695Z,13.31
2024-03-04T10:11:30.088Z,13.39
2024-03-04T10:13:02.672Z,13.50
2024-03-04T10:14:54.451Z,13.61
2024-03-04T10:16:28.271Z,13.78
2024-03-04T10:18:11.429Z,13.82
2024-03-04T10:19:43.141Z,13.81
2024-03-04T10:21:14.824Z,14.05
2024-03-04T10:22:46.349Z,14.20
2024-03-04T10:24:17.785Z,14.17
2024-03-04T10:26:06.159Z,14.16
2024-03-04T10:27:39.615Z,14.38
2024-03-04T10:29:13.718Z,14.52
2024-03-04T10:30:45.627Z,14.41
2024-03-04T10:32:18.307Z,14.38
2024-03-04T10:33:50.033Z,14.52
2024-03-04T10:35:21.660Z,14.54
2024-03-04T10:36:58.727Z,14.28
2024-03-04T10:38:30.224Z,14.02
2024-03-04T10:40:01.886Z,13.66
2024-03-04T10:41:35.341Z,13.44
2024-03-04T10:43:07.731Z,13.21
2024-03-04T10:44:39.782Z,13.05
2024-03-04T10:46:14.806Z,13.03
2024-03-04T10:47:46.979Z,13.03
2024-03-04T10:49:18.964Z,12.84
2024-03-04T10:50:50.661Z,12.93
2024-03-04T10:52:22.719Z,13.26
2024-03-04T10:53:54.206Z,13.33
2024-03-04T10:55:25.980Z,13.36
2024-03-04T10:57:06.005Z,13.78
2024-03-04T10:58:43.127Z,14.04
2024-03-04T11:00:21.484Z,14.39
2024-03-04T11:01:53.401Z,14.54
2024-03-04T11:03:28.158Z,14.72
2024-03-04T11:05:02.977Z,14.74
2024-03-04T11:06:35.746Z,14.64
2024-03-04T11:08:17.645Z,14.83
2024-03-04T11:09:53.866Z,14.92
2024-03-04T11:11:37.113Z,15.01
2024-03-04T11:13:19.296Z,15.05
2024-03-04T11:15:01.123Z,15.05
2024-03-04T11:16:48.782Z,14.95
2024-03-04T11:19:03.042Z,15.08
2024-03-04T11:20:36.041Z,15.14
2024-03-04T11:22:08.664Z,15.04
2024-03-04T11:23:40.404Z,15.06
2024-03-04T11:25:13.163Z,15.16
2024-03-04T11:26:45.747Z,15.21
2024-03-04T11:28:20.330Z,15.20
2024-03-04T11:29:53.463Z,15.34
2024-03-04T11:31:25.651Z,15.42
2024-03-04T11:32:57.231Z,15.56
2024-03-04T11:34:28.718Z,15.59
2024-03-04T11:36:00.160Z,15.69
2024-03-04T11:37:32.343Z,15.71
2024-03-04T11:39:14.453Z,15.84
2024-03-04T11:40:46.544Z,15.84
2024-03-04T11:42:39.806Z,15.85
2024-03-04T11:44:12.729Z,15.77
2024-03-04T11:45:44.143Z,15.89
2024-03-04T11:47:15.566Z,15.83
2024-03-04T11:48:50.325Z,16.07
2024-03-04T11:50:49.808Z,16.21
2024-03-04T11:52:24.627Z,16.34
2024-03-04T11:53:57.235Z,16.23
2024-03-04T11:55:29.528Z,16.09
2024-03-04T11:57:02.049Z,15.90
2024-03-04T11:58:34.744Z,15.69
2024-03-04T12:00:15.135Z,15.51
2024-03-04T12:01:46.632Z,15.38
2024-03-04T12:03:20.273Z,15.61
2024-03-04T12:04:52.157Z,15.81
2024-03-04T12:06:23.766Z,15.77
2024-03-04T12:07:55.404Z,15.50
2024-03-04T12:09:45.305Z,15.15
2024-03-04T12:11:20.042Z,14.78
2024-03-04T12:12:52.013Z,14.56
2024-03-04T12:14:24.198Z,14.44
2024-03-04T12:15:58.568Z,14.34
2024-03-04T12:17:30.747Z,14.17
2024-03-04T12:19:02.477Z,13.86
2024-03-04T12:20:34.551Z,13.64
2024-03-04T12:22:06.139Z,13.43
2024-03-04T12:23:37.579Z,13.23
2024-03-04T12:25:10.956Z,13.22
2024-03-04T12:26:48.756Z,13.02
2024-03-04T12:28:20.380Z,12.86
2024-03-04T12:29:51.858Z,12.82
2024-03-04T12:31:23.433Z,12.83
2024-03-04T12:33:00.249Z,12.91
2024-03-04T12:34:32.486Z,12.86
2024-03-04T12:36:07.272Z,13.02
2024-03-04T12:37:38.711Z,13.37
2024-03-04T12:39:13.418Z,13.65
2024-03-04T12:40:45.125Z,13.71
2024-03-04T12:42:17.368Z,13.68
2024-03-04T12:43:50.389Z,13.59
2024-03-04T12:45:23.934Z,13.41
2024-03-04T12:46:56.229Z,13.17
2024-03-04T12:48:28.713Z,13.06
2024-03-04T12:50:00.273Z,12.88
2024-03-04T12:51:36.309Z,12.80
2024-03-04T12:53:07.865Z,12.70
2024-03-04T12:54:39.273Z,12.73
2024-03-04T12:56:10.720Z,12.67
2024-03-04T12:57:43.333Z,12.67
2024-03-04T12:59:14.736Z,12.59
2024-03-04T13:00:47.471Z,12.59
2024-03-04T13:02:18.899Z,12.63
2024-03-04T13:03:50.335Z,12.70
2024-03-04T13:05:21.813Z,12.68
2024-03-04T13:06:53.837Z,12.67
2024-03-04T13:08:25.312Z,12.69
2024-03-04T13:09:56.712Z,12.74
2024-03-04T13:11:28.262Z,12.90
2024-03-04T13:13:00.436Z,13.19
2024-03-04T13:14:34.249Z,13.07
2024-03-04T13:16:05.911Z,13.02
2024-03-04T13:17:41.621Z,12.89
2024-03-04T13:19:16.867Z,12.77
2024-03-04T13:20:48.650Z,12.77
2024-03-04T13:22:20.343Z,12.84
2024-03-04T13:23:52.059Z,12.83
2024-03-04T13:25:24.094Z,12.82
2024-03-04T13:26:55.545Z,12.60
2024-03-04T13:28:26.936Z,12.39
2024-03-04T13:29:58.578Z,12.46
2024-03-04T13:31:30.210Z,12.58
2024-03-04T13:33:01.715Z,12.67
2024-03-04T13:34:34.149Z,12.78
2024-03-04T13:36:06.051Z,12.85
2024-03-04T13:37:38.185Z,12.99
2024-03-04T13:39:10.137Z,13.07
2024-03-04T13:40:41.683Z,13.23
2024-03-04T13:42:13.137Z,13.23
2024-03-04T13:43:44.567Z,13.26
2024-03-04T13:45:16.172Z,13.28
2024-03-04T13:46:47.683Z,13.37
2024-03-04T13:48:19.389Z,13.45
2024-03-04T13:49:51.032Z,13.40
2024-03-04T13:51:22.579Z,13.34
2024-03-04T13:52:55.382Z,13.33
2024-03-04T13:54:31.343Z,13.44
2024-03-04T13:56:03.739Z,13.56
2024-03-04T13:57:35.149Z,13.67
2024-03-04T13:59:10.691Z,13.56
2024-03-04T14:00:43.262Z,13.45
2024-03-04T14:02:14.867Z,13.40
2024-03-04T14:03:46.349Z,13.32
2024-03-04T14:05:17.877Z,13.15
2024-03-04T14:06:49.250Z,12.94
2024-03-04T14:08:21.143Z,12.69
2024-03-04T14:09:52.636Z,12.51
2024-03-04T14:11:24.480Z,12.42
2024-03-04T14:12:56.013Z,12.47
2024-03-04T14:14:28.890Z,12.32
2024-03-04T14:16:00.470Z,12.33
2024-03-04T14:17:33.237Z,12.42
2024-03-04T14:19:05.913Z,12.46
2024-03-04T14:20:37.333Z,12.27
2024-03-04T14:22:09.434Z,12.20
2024-03-04T14:23:41.652Z,12.11
2024-03-04T14:25:13.366Z,12.10
2024-03-04T14:26:44.783Z,12.10
2024-03-04T14:28:18.271Z,12.03
2024-03-04T14:29:49.689Z,11.96
2024-03-04T14:31:21.354Z,12.00
2024-03-04T14:32:52.922Z,11.98
2024-03-04T14:34:27.847Z,11.88
2024-03-04T14:35:59.328Z,11.64
2024-03-04T14:37:30.825Z,11.47
2024-03-04T14:39:02.357Z,11.52
2024-03-04T14:40:33.901Z,11.48
2024-03-04T14:42:05.590Z,11.35
2024-03-04T14:43:37.009Z,11.27
2024-03-04T14:45:08.937Z,11.15
2024-03-04T14:46:42.426Z,11.13
2024-03-04T14:48:14.031Z,11.12
2024-03-04T14:49:45.609Z,11.16
2024-03-04T14:51:17.397Z,11.14
2024-03-04T14:52:48.960Z,11.07
2024-03-04T14:54:20.473Z,11.04
2024-03-04T14:55:51.958Z,11.09
2024-03-04T14:57:24.012Z,11.13
2024-03-04T14:58:59.288Z,11.13
2024-03-04T15:00:32.470Z,11.01
2024-03-04T15:02:04.196Z,10.98
2024-03-04T15:03:35.789Z,10.90
2024-03-04T15:05:09.534Z,10.81
2024-03-04T15:06:41.186Z,10.72
2024-03-04T15:08:12.936Z,10.71
2024-03-04T15:09:44.331Z,10.71
2024-03-04T15:11:16.524Z,10.75
2024-03-04T15:12:48.116Z,10.80
2024-03-04T15:14:20.573Z,10.83
2024-03-04T15:15:51.975Z,10.94
2024-03-04T15:17:24.264Z,10.92
2024-03-04T15:18:55.791Z,10.88
2024-03-04T15:20:27.538Z,10.87
2024-03-04T15:21:59.982Z,10.82
2024-03-04T15:23:34.343Z,10.81
2024-03-04T15:25:07.579Z,10.81
2024-03-04T15:26:39.024Z,10.83
2024-03-04T15:28:12.441Z,10.73
2024-03-04T15:29:44.395Z,10.70
2024-03-04T15:31:17.015Z,10.66
2024-03-04T15:32:48.448Z,10.60
2024-03-04T15:34:20.069Z,10.54
2024-03-04T15:35:56.518Z,10.51
2024-03-04T15:37:31.941Z,10.36
2024-03-04T15:39:04.666Z,10.31
2024-03-04T15:40:36.307Z,10.25
2024-03-04T15:42:10.369Z,10.17
2024-03-04T15:43:42.143Z,10.18
2024-03-04T15:45:13.652Z,10.13
2024-03-04T15:46:47.759Z,10.02
2024-03-04T15:48:20.367Z,10.03
2024-03-04T15:49:53.052Z,9.96
2024-03-04T15:51:24.586Z,9.89
2024-03-04T15:52:56.004Z,9.93
2024-03-04T15:54:27.431Z,9.89
2024-03-04T15:55:58.985Z,9.82
2024-03-04T15:57:30.413Z,9.76
2024-03-04T15:59:01.932Z,9.75
2024-03-04T16:00:35.069Z,9.70
2024-03-04T16:02:06.781Z,9.60
2024-03-04T16:03:38.267Z,9.54
2024-03-04T16:05:10.578Z,9.48
2024-03-04T16:06:45.012Z,9.41
2024-03-04T16:08:16.619Z,9.31
2024-03-04T16:09:48.036Z,9.27
2024-03-04T16:11:19.442Z,9.23
2024-03-04T16:12:50.882Z,9.21
2024-03-04T16:14:22.396Z,9.14
2024-03-04T16:15:56.719Z,9.06
2024-03-04T16:17:29.646Z,9.04
2024-03-04T16:19:01.203Z,9.01
2024-03-04T16:20:32.632Z,8.95
2024-03-04T16:22:04.231Z,8.90
2024-03-04T16:23:35.803Z,8.85
2024-03-04T16:25:07.580Z,8.83
2024-03-04T16:26:39.217Z,8.83
2024-03-04T16:28:10.665Z,8.81
2024-03-04T16:29:42.237Z,8.77
2024-03-04T16:31:13.707Z,8.74
2024-03-04T16:32:45.516Z,8.74
2024-03-04T16:34:17.155Z,8.73
2024-03-04T16:35:48.604Z,8.65
2024-03-04T16:37:20.737Z,8.64
2024-03-04T16:38:52.313Z,8.56
2024-03-04T16:40:23.967Z,8.54
2024-03-04T16:41:56.070Z,8.51
2024-03-04T16:43:27.509Z,8.48
2024-03-04T16:44:59.082Z,8.41
2024-03-04T16:46:30.475Z,8.38
2024-03-04T16:48:02.058Z,8.38
2024-03-04T16:49:33.554Z,8.36
2024-03-04T16:51:05.224Z,8.31
2024-03-04T16:52:37.160Z,8.30
2024-03-04T16:54:08.850Z,8.27
2024-03-04T16:55:41.142Z,8.22
2024-03-04T16:57:12.616Z,8.15
2024-03-04T16:58:44.162Z,8.13
2024-03-04T17:00:17.906Z,8.09
2024-03-04T17:01:50.278Z,8.06
2024-03-04T17:03:22.150Z,8.02
2024-03-04T17:04:54.353Z,8.00
2024-03-04T17:06:27.772Z,7.98
2024-03-04T17:07:59.301Z,7.98
2024-03-04T17:09:30.935Z,7.95
2024-03-04T17:11:02.846Z,7.91
2024-03-04T17:12:34.770Z,7.91
2024-03-04T17:14:06.333Z,7.88
2024-03-04T17:15:37.865Z,7.86
2024-03-04T17:17:09.350Z,7.86
2024-03-04T17:18:40.913Z,7.86
2024-03-04T17:20:14.145Z,7.88
2024-03-04T17:21:46.342Z,7.87
2024-03-04T17:23:17.827Z,7.86
2024-03-04T17:24:49.369Z,7.84
2024-03-04T17:26:22.694Z,7.83
2024-03-04T17:27:54.099Z,7.86
2024-03-04T17:29:25.606Z,7.86
2024-03-04T17:30:57.359Z,7.83
2024-03-04T17:32:30.004Z,7.79
2024-03-04T17:34:01.629Z,7.79
2024-03-04T17:35:33.003Z,7.80
2024-03-04T17:37:04.732Z,7.78
2024-03-04T17:38:36.507Z,7.75
2024-03-04T17:40:09.743Z,7.72
2024-03-04T17:41:41.265Z,7.71
2024-03-04T17:43:12.809Z,7.68
2024-03-04T17:44:44.300Z,7.66
2024-03-04T17:46:15.882Z,7.63
2024-03-04T17:47:47.396Z,7.61
2024-03-04T17:49:19.060Z,7.62
2024-03-04T17:50:50.480Z,7.60
2024-03-04T17:52:22.555Z,7.59
2024-03-04T17:53:54.100Z,7.55
2024-03-04T17:55:25.667Z,7.50
2024-03-04T17:56:57.103Z,7.49
2024-03-04T17:58:28.494Z,7.51
2024-03-04T17:59:59.916Z,7.47
2024-03-04T18:01:31.552Z,7.47
2024-03-04T18:03:03.374Z,7.44
2024-03-04T18:04:35.611Z,7.42
2024-03-04T18:06:07.202Z,7.40
2024-03-04T18:07:39.752Z,7.37
2024-03-04T18:09:11.322Z,7.36
2024-03-04T18:10:45.670Z,7.35
2024-03-04T18:12:17.245Z,7.35
2024-03-04T18:13:48.708Z,7.34
2024-03-04T18:15:20.299Z,7.34
2024-03-04T18:16:51.966Z,7.37
2024-03-04T18:18:24.394Z,7.38
2024-03-04T18:19:56.146Z,7.40
2024-03-04T18:21:27.691Z,7.38
2024-03-04T18:22:59.075Z,7.39
2024-03-04T18:24:31.229Z,7.41
2024-03-04T18:26:02.835Z,7.42
2024-03-04T18:27:34.237Z,7.42
2024-03-04T18:29:05.919Z,7.39
2024-03-04T18:30:37.301Z,7.39
2024-03-04T18:32:08.976Z,7.37
2024-03-04T18:33:40.391Z,7.37
2024-03-04T18:35:12.587Z,7.35
2024-03-04T18:36:46.018Z,7.33
2024-03-04T18:38:18.088Z,7.28
2024-03-04T18:39:49.498Z,7.25
2024-03-04T18:41:21.882Z,7.21
2024-03-04T18:42:53.448Z,7.17
2024-03-04T18:44:24.836Z,7.16
2024-03-04T18:45:56.313Z,7.13
2024-03-04T18:47:27.875Z,7.11
2024-03-04T18:48:59.839Z,7.09
2024-03-04T18:50:31.210Z,7.07
2024-03-04T18:52:02.660Z,7.06
2024-03-04T18:53:35.080Z,7.07
2024-03-04T18:55:07.695Z,7.04
2024-03-04T18:56:43.179Z,7.01
2024-03-04T18:58:14.593Z,7.01
2024-03-04T18:59:47.614Z,7.01
2024-03-04T19:01:27.484Z,6.99
2024-03-04T19:02:58.948Z,6.94
2024-03-04T19:04:30.718Z,6.90
2024-03-04T19:06:02.259Z,6.89
2024-03-04T19:07:33.927Z,6.90
2024-03-04T19:09:09.039Z,6.90
2024-03-04T19:10:40.451Z,6.89
2024-03-04T19:12:12.261Z,6.87
2024-03-04T19:13:43.841Z,6.85
2024-03-04T19:15:15.288Z,6.85
2024-03-04T19:16:46.862Z,6.85
2024-03-04T19:18:19.755Z,6.82
2024-03-04T19:19:51.154Z,6.80
2024-03-04T19:21:26.331Z,6.82
2024-03-04T19:22:58.440Z,6.77
2024-03-04T19:24:30.042Z,6.76
2024-03-04T19:26:01.483Z,6.76
2024-03-04T19:27:33.667Z,6.75
2024-03-04T19:29:05.248Z,6.71
2024-03-04T19:30:36.722Z,6.71
2024-03-04T19:32:08.116Z,6.68
2024-03-04T19:33:39.512Z,6.67
2024-03-04T19:35:12.887Z,6.68
2024-03-04T19:36:44.330Z,6.71
2024-03-04T19:38:16.478Z,6.69
2024-03-04T19:39:47.969Z,6.67
2024-03-04T19:41:23.413Z,6.66
2024-03-04T19:42:55.013Z,6.64
2024-03-04T19:44:26.381Z,6.61
2024-03-04T19:45:57.789Z,6.59
2024-03-04T19:47:30.724Z,6.58
2024-03-04T19:49:02.696Z,6.56
2024-03-04T19:50:34.097Z,6.54
2024-03-04T19:52:05.676Z,6.55
2024-03-04T19:53:40.746Z,6.53
2024-03-04T19:55:12.918Z,6.51
2024-03-04T19:56:44.433Z,6.50
2024-03-04T19:58:15.866Z,6.47
2024-03-04T19:59:48.832Z,6.43
2024-03-04T20:01:22.378Z,6.43
2024-03-04T20:02:54.364Z,6.37
2024-03-04T20:04:25.911Z,6.32
2024-03-04T20:05:57.507Z,6.31
2024-03-04T20:07:28.970Z,6.27
2024-03-04T20:09:00.630Z,6.22
2024-03-04T20:10:32.337Z,6.18
2024-03-04T20:12:04.019Z,6.14
2024-03-04T20:13:38.635Z,6.11
2024-03-04T20:15:10.226Z,6.07
2024-03-04T20:16:43.895Z,6.03
2024-03-04T20:18:15.546Z,5.96
2024-03-04T20:19:47.181Z,5.92
2024-03-04T20:21:18.655Z,5.89
2024-03-04T20:22:50.604Z,5.89